Time;durP1;ratioP1;P1;durP2;ratioP2;P2;SDS_P1;SDS_P2;PMS_P1;PMS_P2;Temp;Humidity;BMP_temperature;BMP_pressure;BME280_temperature;BME280_humidity;BME280_pressure;Samples;Min_cycle;Max_cycle;Signal;HPM_P1;HPM_P2
2023/06/09 00:00:29;;;;;;;5.33;4.93;;;;;;;13.42;100.00;96705.63;5027370;28;20211;-62
2023/06/09 00:02:57;;;;;;;6.43;5.60;;;;;;;13.31;100.00;96704.50;5050567;28;20265;-65
2023/06/09 00:05:28;;;;;;;6.50;5.90;;;;;;;13.32;100.00;96695.47;5049824;28;20296;-64
2023/06/09 00:07:56;;;;;;;5.70;5.30;;;;;;;13.28;100.00;96700.41;4993470;28;20215;-64
2023/06/09 00:10:25;;;;;;;5.60;5.30;;;;;;;13.26;100.00;96693.69;5034687;28;20285;-63
2023/06/09 00:12:53;;;;;;;6.20;5.80;;;;;;;13.21;100.00;96694.31;5044908;28;20564;-65
2023/06/09 00:15:21;;;;;;;6.83;6.23;;;;;;;13.09;100.00;96706.66;5044905;28;20965;-67
2023/06/09 00:17:49;;;;;;;6.37;5.97;;;;;;;13.00;100.00;96709.53;5029870;28;20301;-67
2023/06/09 00:20:17;;;;;;;6.10;5.70;;;;;;;12.94;100.00;96718.34;5056434;28;20725;-64
2023/06/09 00:22:45;;;;;;;6.20;5.87;;;;;;;12.86;100.00;96724.72;5000368;28;20301;-66
2023/06/09 00:25:14;;;;;;;6.30;5.90;;;;;;;12.86;100.00;96726.56;5038963;28;20227;-62
2023/06/09 00:27:44;;;;;;;6.63;6.13;;;;;;;12.84;100.00;96724.09;5052484;28;20207;-64
2023/06/09 00:30:14;;;;;;;6.67;6.27;;;;;;;12.75;100.00;96722.72;5042938;28;20811;-63
2023/06/09 00:33:00;;;;;;;7.10;6.60;;;;;;;12.73;100.00;96722.09;5029674;28;20606;-65
2023/06/09 00:35:28;;;;;;;7.67;7.07;;;;;;;12.76;100.00;96715.56;5045895;28;20214;-64
2023/06/09 00:37:55;;;;;;;6.27;5.87;;;;;;;12.73;100.00;96712.31;5017897;28;20276;-64
2023/06/09 00:40:23;;;;;;;6.90;6.50;;;;;;;12.73;100.00;96709.66;5031317;28;20246;-62
2023/06/09 00:42:52;;;;;;;7.63;6.93;;;;;;;12.73;100.00;96711.47;5049594;28;20203;-65
2023/06/09 00:45:20;;;;;;;7.60;7.10;;;;;;;12.72;100.00;96712.50;5026814;28;20295;-65
2023/06/09 00:47:48;;;;;;;7.10;6.60;;;;;;;12.66;100.00;96706.16;5028122;28;20243;-63
2023/06/09 00:50:16;;;;;;;7.50;7.00;;;;;;;12.61;100.00;96713.94;5054295;28;20229;-66
2023/06/09 00:52:45;;;;;;;7.40;6.90;;;;;;;12.60;100.00;96707.00;5050061;28;20285;-64
2023/06/09 00:55:13;;;;;;;7.70;7.20;;;;;;;12.53;100.00;96706.22;4997348;28;20303;-65
2023/06/09 00:57:44;;;;;;;7.90;7.33;;;;;;;12.52;100.00;96712.56;5050826;28;20213;-63
2023/06/09 01:00:16;;;;;;;7.57;7.07;;;;;;;12.52;100.00;96716.03;5030305;28;20297;-66
2023/06/09 01:02:44;;;;;;;7.73;7.10;;;;;;;12.45;100.00;96712.56;5055921;28;20617;-66
2023/06/09 01:05:13;;;;;;;7.60;7.10;;;;;;;12.42;100.00;96716.47;5032713;28;20792;-65
2023/06/09 01:07:46;;;;;;;7.53;7.07;;;;;;;12.41;100.00;96709.53;5051087;28;20341;-64
2023/06/09 01:10:18;;;;;;;7.40;6.87;;;;;;;12.34;100.00;96707.88;4997929;28;20206;-66
2023/06/09 01:12:48;;;;;;;7.83;7.33;;;;;;;12.33;100.00;96714.22;5035656;28;20704;-64
2023/06/09 01:15:20;;;;;;;7.97;7.47;;;;;;;12.29;100.00;96713.81;5051743;28;20613;-65
2023/06/09 01:17:51;;;;;;;7.83;7.20;;;;;;;12.29;100.00;96721.78;5051885;28;20333;-64
2023/06/09 01:20:26;;;;;;;7.60;7.10;;;;;;;12.27;100.00;96707.88;5024777;28;20198;-65
2023/06/09 01:23:00;;;;;;;7.57;7.07;;;;;;;12.23;100.00;96714.63;5052777;28;20696;-63
2023/06/09 01:25:34;;;;;;;8.40;7.73;;;;;;;12.20;100.00;96710.56;4999374;28;20403;-64
2023/06/09 01:28:05;;;;;;;7.80;7.30;;;;;;;12.18;100.00;96709.97;5038359;28;20217;-63
2023/06/09 01:30:34;;;;;;;8.67;7.77;;;;;;;12.20;100.00;96715.88;5026137;28;20319;-63
2023/06/09 01:33:06;;;;;;;7.90;7.40;;;;;;;12.20;100.00;96709.75;5053523;28;20297;-64
2023/06/09 01:35:33;;;;;;;8.77;7.97;;;;;;;12.19;100.00;96710.75;5030929;28;20304;-65
2023/06/09 01:38:01;;;;;;;7.80;7.30;;;;;;;12.19;100.00;96700.13;5052426;28;20207;-63
2023/06/09 01:40:30;;;;;;;8.60;8.00;;;;;;;12.33;100.00;96706.25;4994451;28;20749;-64
2023/06/09 01:42:59;;;;;;;9.03;8.40;;;;;;;12.37;100.00;96703.00;5035995;28;20215;-64
2023/06/09 01:45:26;;;;;;;9.40;8.60;;;;;;;12.40;100.00;96701.75;5026875;28;21027;-64
2023/06/09 01:47:54;;;;;;;9.03;8.33;;;;;;;12.45;100.00;96704.59;5053825;28;20670;-63
2023/06/09 01:50:30;;;;;;;9.73;8.77;;;;;;;12.41;100.00;96704.22;5029215;28;20201;-63
2023/06/09 01:52:59;;;;;;;9.30;8.50;;;;;;;12.40;100.00;96702.56;5049659;28;20300;-63
2023/06/09 01:55:33;;;;;;;9.20;8.50;;;;;;;12.54;100.00;96702.53;4993466;28;21362;-65
2023/06/09 01:58:06;;;;;;;9.23;8.43;;;;;;;12.57;100.00;96694.97;5037251;28;20725;-64
2023/06/09 02:00:34;;;;;;;8.20;7.70;;;;;;;12.73;100.00;96695.53;5049404;28;20242;-63
2023/06/09 02:03:05;;;;;;;9.43;8.63;;;;;;;12.71;100.00;96697.59;5033134;28;20203;-64
2023/06/09 02:05:34;;;;;;;9.00;8.20;;;;;;;12.73;100.00;96693.69;5046877;28;20234;-64
2023/06/09 02:08:02;;;;;;;8.83;8.13;;;;;;;12.72;100.00;96686.75;5028442;28;20213;-63
2023/06/09 02:10:32;;;;;;;8.63;8.03;;;;;;;12.70;100.00;96701.25;5052889;28;20298;-64
2023/06/09 02:13:11;;;;;;;8.20;7.40;;;;;;;12.71;100.00;96697.59;4985397;28;20719;-65
2023/06/09 02:15:39;;;;;;;9.23;8.53;;;;;;;12.80;100.00;96690.19;5052196;28;20374;-64
2023/06/09 02:18:07;;;;;;;8.70;8.10;;;;;;;12.83;100.00;96689.78;5031638;28;20848;-66
2023/06/09 02:20:34;;;;;;;8.47;7.67;;;;;;;12.90;100.00;96685.25;5050514;28;20508;-63
2023/06/09 02:23:02;;;;;;;7.83;7.33;;;;;;;12.88;100.00;96685.47;5029459;28;20231;-64
2023/06/09 02:25:32;;;;;;;8.47;7.77;;;;;;;12.88;100.00;96688.13;5048211;28;20784;-64
2023/06/09 02:28:02;;;;;;;8.43;7.83;;;;;;;12.85;100.00;96688.53;5000416;28;20883;-64
2023/06/09 02:30:29;;;;;;;8.67;8.10;;;;;;;12.89;100.00;96688.94;5049615;28;20507;-64
2023/06/09 02:32:58;;;;;;;8.47;7.90;;;;;;;12.93;100.00;96686.69;5031852;28;20206;-63
2023/06/09 02:35:25;;;;;;;8.53;7.73;;;;;;;12.90;100.00;96687.91;5052215;28;20296;-64
2023/06/09 02:37:53;;;;;;;8.27;7.67;;;;;;;12.99;100.00;96689.28;5029471;28;20314;-64
2023/06/09 02:40:21;;;;;;;7.90;7.40;;;;;;;13.21;100.00;96690.81;5043675;28;20218;-64
2023/06/09 02:42:50;;;;;;;8.33;7.67;;;;;;;13.23;100.00;96686.94;5052804;28;20240;-65
2023/06/09 02:45:18;;;;;;;7.30;6.80;;;;;;;13.21;100.00;96686.31;4997038;28;20237;-65
2023/06/09 02:47:45;;;;;;;8.00;7.30;;;;;;;13.21;100.00;96694.31;5050982;28;20749;-64
2023/06/09 02:50:15;;;;;;;8.23;7.63;;;;;;;13.25;100.00;96692.84;5031130;28;20200;-66
2023/06/09 02:52:42;;;;;;;8.30;7.70;;;;;;;13.23;100.00;96692.25;5032141;28;20760;-64
2023/06/09 02:55:11;;;;;;;8.73;8.13;;;;;;;13.25;100.00;96690.19;5043956;28;20219;-65
2023/06/09 02:57:38;;;;;;;8.10;7.50;;;;;;;13.26;100.00;96697.16;5048519;28;20206;-64
2023/06/09 03:00:09;;;;;;;9.33;8.53;;;;;;;13.18;100.00;96681.44;4996982;28;20697;-65
2023/06/09 03:02:38;;;;;;;8.83;7.93;;;;;;;13.25;100.00;96695.50;5052171;28;20491;-63
2023/06/09 03:05:06;;;;;;;8.03;7.33;;;;;;;13.39;100.00;96690.09;5041965;28;20223;-66
2023/06/09 03:07:34;;;;;;;8.73;8.13;;;;;;;13.35;100.00;96684.41;5026547;28;22896;-64
2023/06/09 03:10:02;;;;;;;7.43;6.97;;;;;;;13.37;100.00;96689.50;5046978;28;20213;-64
2023/06/09 03:12:29;;;;;;;8.30;7.80;;;;;;;13.31;100.00;96691.19;5048670;28;20672;-64
2023/06/09 03:14:57;;;;;;;8.30;7.80;;;;;;;13.18;100.00;96695.53;4997194;28;20250;-64
2023/06/09 03:17:26;;;;;;;8.30;7.80;;;;;;;13.25;100.00;96690.19;5049346;28;20209;-65
2023/06/09 03:19:54;;;;;;;8.73;7.93;;;;;;;13.20;100.00;96698.00;5046402;28;20290;-59
2023/06/09 03:22:22;;;;;;;8.27;7.67;;;;;;;13.20;100.00;96705.16;5028910;28;20217;-64
2023/06/09 03:24:49;;;;;;;8.80;8.20;;;;;;;13.25;100.00;96700.84;5031963;28;20312;-64
2023/06/09 03:27:18;;;;;;;8.10;7.60;;;;;;;13.23;100.00;96707.38;5047303;28;20298;-66
2023/06/09 03:29:46;;;;;;;9.87;9.07;;;;;;;13.14;100.00;96709.50;5049789;28;20203;-64
2023/06/09 03:32:13;;;;;;;9.17;8.47;;;;;;;13.14;100.00;96712.16;4993711;28;20676;-66
2023/06/09 03:34:42;;;;;;;8.93;8.23;;;;;;;13.15;100.00;96713.78;5052318;28;20246;-64
2023/06/09 03:37:12;;;;;;;8.50;7.87;;;;;;;13.21;100.00;96722.75;5027380;28;21133;-66
2023/06/09 03:39:39;;;;;;;9.00;8.40;;;;;;;13.16;100.00;96720.72;5028681;28;20427;-65
2023/06/09 03:42:07;;;;;;;8.97;8.03;;;;;;;13.17;100.00;96725.81;5045220;28;20213;-66
2023/06/09 03:44:35;;;;;;;8.63;8.03;;;;;;;13.16;100.00;96726.84;5046371;28;20395;-64
2023/06/09 03:47:03;;;;;;;8.40;7.80;;;;;;;13.17;100.00;96723.16;4994799;28;20284;-66
2023/06/09 03:49:31;;;;;;;11.50;8.00;;;;;;;13.24;100.00;96728.47;5050147;28;20471;-66
2023/06/09 03:52:00;;;;;;;8.57;7.97;;;;;;;13.15;100.00;96732.41;5028768;28;21609;-66
2023/06/09 03:54:27;;;;;;;8.77;8.17;;;;;;;13.21;100.00;96744.03;5039102;28;21470;-63
2023/06/09 03:56:55;;;;;;;8.50;7.87;;;;;;;13.15;100.00;96743.03;5026198;28;20326;-65
2023/06/09 03:59:23;;;;;;;8.20;7.50;;;;;;;13.25;100.00;96751.38;5040080;28;20467;-63
2023/06/09 04:01:50;;;;;;;8.33;7.73;;;;;;;13.27;100.00;96741.34;5050488;28;20606;-66
2023/06/09 04:04:18;;;;;;;8.73;8.13;;;;;;;13.36;100.00;96741.09;4990093;28;20239;-66
2023/06/09 04:06:46;;;;;;;7.90;7.40;;;;;;;13.35;100.00;96742.13;5029628;28;20217;-65
2023/06/09 04:09:17;;;;;;;8.97;8.20;;;;;;;13.28;100.00;96740.31;5045249;28;20269;-67
2023/06/09 04:11:45;;;;;;;9.70;8.87;;;;;;;13.33;100.00;96745.00;5025487;28;20283;-67
2023/06/09 04:14:12;;;;;;;9.03;8.33;;;;;;;13.30;100.00;96746.22;5036993;28;20245;-66
2023/06/09 04:16:41;;;;;;;9.33;8.73;;;;;;;13.35;100.00;96740.28;5049632;28;20491;-64
2023/06/09 04:19:09;;;;;;;9.17;8.30;;;;;;;13.44;100.00;96740.88;4997735;28;20219;-66
2023/06/09 04:21:37;;;;;;;8.37;7.83;;;;;;;13.48;100.00;96750.06;5052898;28;20462;-64
2023/06/09 04:24:05;;;;;;;9.20;8.50;;;;;;;13.46;100.00;96760.91;5026509;28;21045;-67
2023/06/09 04:26:38;;;;;;;9.13;8.53;;;;;;;13.42;100.00;96758.84;5026577;28;20211;-63
2023/06/09 04:29:09;;;;;;;10.07;9.27;;;;;;;13.44;100.00;96756.84;5051313;28;20207;-66
2023/06/09 04:31:39;;;;;;;9.27;8.67;;;;;;;13.50;100.00;96755.19;5049534;28;20706;-64
2023/06/09 04:34:10;;;;;;;10.07;9.03;;;;;;;13.41;100.00;96735.94;5003135;28;20227;-67
2023/06/09 04:36:39;;;;;;;8.83;8.23;;;;;;;13.54;100.00;96743.91;5055915;28;20318;-65
2023/06/09 04:39:07;;;;;;;10.00;9.30;;;;;;;13.54;100.00;96746.56;5029615;28;20272;-67
2023/06/09 04:41:37;;;;;;;9.10;8.13;;;;;;;13.59;100.00;96740.56;5046746;28;20875;-64
2023/06/09 04:44:05;;;;;;;9.67;8.97;;;;;;;13.60;100.00;96742.22;5027116;28;20747;-66
2023/06/09 04:46:37;;;;;;;9.40;8.70;;;;;;;13.58;100.00;96745.09;5047031;28;20442;-65
2023/06/09 04:49:09;;;;;;;10.40;9.60;;;;;;;13.73;100.00;96743.97;5000892;28;20223;-67
2023/06/09 04:51:41;;;;;;;9.23;8.53;;;;;;;13.82;100.00;96747.19;5051020;28;20425;-65
2023/06/09 04:54:10;;;;;;;9.30;8.60;;;;;;;13.67;100.00;96731.53;5039772;28;20609;-66
2023/06/09 04:56:41;;;;;;;10.33;9.63;;;;;;;13.69;100.00;96746.28;5051017;28;20425;-66
2023/06/09 04:59:08;;;;;;;9.10;8.50;;;;;;;13.68;100.00;96746.47;5026111;28;20206;-67
2023/06/09 05:01:37;;;;;;;10.27;9.57;;;;;;;13.84;100.00;96758.44;5050685;28;20596;-65
2023/06/09 05:04:05;;;;;;;9.20;8.60;;;;;;;13.95;100.00;96759.63;5046748;28;20318;-66
2023/06/09 05:06:33;;;;;;;9.27;8.70;;;;;;;13.99;100.00;96755.47;5016409;28;20202;-64
2023/06/09 05:09:01;;;;;;;10.03;9.33;;;;;;;14.05;100.00;96754.63;5060215;28;20294;-65
2023/06/09 05:11:29;;;;;;;10.03;9.23;;;;;;;14.13;100.00;96758.88;5030317;28;20241;-64
2023/06/09 05:13:58;;;;;;;10.83;9.93;;;;;;;14.25;100.00;96758.97;5055326;28;20321;-67
2023/06/09 05:16:27;;;;;;;9.63;8.93;;;;;;;14.35;100.00;96758.47;5023715;28;20956;-65
2023/06/09 05:18:55;;;;;;;8.97;8.37;;;;;;;14.43;100.00;96760.88;5058415;28;20398;-64
2023/06/09 05:21:24;;;;;;;9.37;8.77;;;;;;;14.65;100.00;96757.78;5003672;28;20211;-65
2023/06/09 05:23:52;;;;;;;8.93;8.33;;;;;;;14.85;100.00;96766.44;5052734;28;20222;-66
2023/06/09 05:26:20;;;;;;;9.90;9.20;;;;;;;15.26;100.00;96768.66;5030913;28;20694;-66
2023/06/09 05:28:47;;;;;;;9.40;8.70;;;;;;;15.45;100.00;96759.56;5054936;28;20285;-67
2023/06/09 05:31:17;;;;;;;9.27;8.57;;;;;;;15.56;100.00;96757.97;5029325;28;20306;-66
2023/06/09 05:33:45;;;;;;;9.83;9.23;;;;;;;15.45;100.00;96761.44;5061872;28;20214;-64
2023/06/09 05:36:13;;;;;;;9.80;9.07;;;;;;;15.57;100.00;96767.63;5001191;28;20227;-66
2023/06/09 05:38:41;;;;;;;9.40;8.80;;;;;;;15.75;100.00;96766.75;5052719;28;20222;-63
2023/06/09 05:41:09;;;;;;;9.37;8.77;;;;;;;16.03;100.00;96765.34;5050733;28;20536;-66
2023/06/09 05:43:36;;;;;;;9.00;8.30;;;;;;;16.04;100.00;96775.00;5037367;28;20508;-65
2023/06/09 05:46:04;;;;;;;8.30;7.80;;;;;;;16.21;100.00;96768.97;5054628;28;20298;-65
2023/06/09 05:48:33;;;;;;;8.57;7.93;;;;;;;16.30;100.00;96770.28;5035254;28;20741;-64
2023/06/09 05:51:01;;;;;;;8.53;8.03;;;;;;;16.37;100.00;96772.03;5002345;28;20317;-65
2023/06/09 05:53:29;;;;;;;9.30;8.70;;;;;;;16.57;100.00;96774.38;5048502;28;21676;-65
2023/06/09 05:55:58;;;;;;;8.87;8.17;;;;;;;16.55;100.00;96769.25;5054664;28;20446;-65
2023/06/09 05:58:31;;;;;;;8.90;8.33;;;;;;;16.36;100.00;96765.88;5028095;28;20218;-67
2023/06/09 06:00:58;;;;;;;8.67;8.00;;;;;;;16.35;100.00;96772.25;5051988;28;20407;-64
2023/06/09 06:03:26;;;;;;;8.30;7.80;;;;;;;16.34;100.00;96774.13;5035078;28;20203;-66
2023/06/09 06:05:55;;;;;;;8.77;8.17;;;;;;;16.39;100.00;96769.94;5000421;28;21576;-64
2023/06/09 06:08:23;;;;;;;8.80;8.20;;;;;;;16.42;100.00;96775.63;5050445;28;20229;-65
2023/06/09 06:10:51;;;;;;;8.90;8.27;;;;;;;16.33;100.00;96772.50;5046435;28;20238;-64
2023/06/09 06:13:19;;;;;;;8.90;8.30;;;;;;;16.26;100.00;96776.31;5027202;28;20214;-63
2023/06/09 06:15:46;;;;;;;8.20;7.60;;;;;;;16.10;100.00;96772.44;5049184;28;20665;-63
2023/06/09 06:18:14;;;;;;;8.33;7.63;;;;;;;16.14;100.00;96776.28;5029666;28;20897;-63
2023/06/09 06:20:42;;;;;;;8.40;7.80;;;;;;;16.07;100.00;96773.72;5007107;28;20207;-65
2023/06/09 06:23:11;;;;;;;8.83;8.20;;;;;;;15.89;100.00;96767.41;5052546;28;20228;-64
2023/06/09 06:25:41;;;;;;;7.97;7.37;;;;;;;15.86;100.00;96770.50;5050419;28;20268;-65
2023/06/09 06:28:08;;;;;;;8.10;7.50;;;;;;;15.87;100.00;96769.47;5034537;28;20206;-64
2023/06/09 06:30:37;;;;;;;7.70;7.23;;;;;;;15.70;100.00;96766.63;5043295;28;20690;-66
2023/06/09 06:33:06;;;;;;;8.77;8.03;;;;;;;15.82;100.00;96777.34;5055300;28;20203;-65
2023/06/09 06:35:34;;;;;;;7.50;7.00;;;;;;;16.12;100.00;96776.53;5033311;28;20235;-66
2023/06/09 06:38:02;;;;;;;6.90;6.50;;;;;;;16.55;100.00;96763.88;4999689;28;20674;-64
2023/06/09 06:40:31;;;;;;;5.93;5.53;;;;;;;16.85;100.00;96776.31;5050765;28;20256;-65
2023/06/09 06:42:58;;;;;;;6.23;5.83;;;;;;;16.73;100.00;96765.63;5030780;28;22929;-65
2023/06/09 06:45:27;;;;;;;6.37;5.97;;;;;;;16.61;100.00;96770.19;5048687;28;20318;-64
2023/06/09 06:47:55;;;;;;;5.80;5.40;;;;;;;16.79;100.00;96770.03;5051868;28;20456;-64
2023/06/09 06:50:22;;;;;;;5.47;5.17;;;;;;;17.12;100.00;96767.00;5033154;28;20974;-66
2023/06/09 06:52:53;;;;;;;6.20;5.70;;;;;;;17.09;100.00;96767.47;4997967;28;20426;-63
2023/06/09 06:55:20;;;;;;;5.87;5.47;;;;;;;17.09;100.00;96762.94;5050904;28;20242;-63
2023/06/09 06:57:49;;;;;;;6.63;6.13;;;;;;;17.21;100.00;96770.94;5049250;28;20910;-64
2023/06/09 07:00:17;;;;;;;6.70;6.20;;;;;;;17.28;100.00;96768.13;5033157;28;20241;-63
2023/06/09 07:02:46;;;;;;;5.73;5.23;;;;;;;17.45;100.00;96769.03;5054200;28;20285;-63
2023/06/09 07:05:15;;;;;;;6.33;5.93;;;;;;;17.69;100.00;96776.94;5033155;28;20644;-64
2023/06/09 07:07:43;;;;;;;6.03;5.63;;;;;;;18.01;100.00;96778.34;4988713;28;20959;-66
2023/06/09 07:10:11;;;;;;;8.03;7.23;;;;;;;17.90;100.00;96769.28;5053317;28;20206;-64
2023/06/09 07:12:39;;;;;;;6.03;5.63;;;;;;;18.19;100.00;96778.13;5047746;28;20202;-65
2023/06/09 07:15:09;;;;;;;5.70;5.40;;;;;;;18.37;100.00;96765.50;5027983;28;20246;-64
2023/06/09 07:17:37;;;;;;;5.40;5.10;;;;;;;18.41;100.00;96766.66;5043593;28;21654;-66
2023/06/09 07:20:06;;;;;;;5.47;5.17;;;;;;;18.33;100.00;96773.25;5035697;28;20350;-64
2023/06/09 07:22:35;;;;;;;5.20;4.90;;;;;;;18.33;100.00;96772.41;5018103;28;20501;-64
2023/06/09 07:25:03;;;;;;;6.33;5.77;;;;;;;18.67;100.00;96764.34;5035765;28;20307;-65
2023/06/09 07:27:31;;;;;;;5.20;4.87;;;;;;;19.11;100.00;96763.63;5049094;28;20195;-66
2023/06/09 07:29:59;;;;;;;5.77;5.17;;;;;;;19.37;100.00;96762.06;5050003;28;20482;-64
2023/06/09 07:32:27;;;;;;;5.83;5.43;;;;;;;19.52;100.00;96760.63;5053147;28;20195;-66
2023/06/09 07:34:57;;;;;;;4.73;4.43;;;;;;;19.59;100.00;96757.72;5044501;28;20422;-64
2023/06/09 07:37:26;;;;;;;4.90;4.47;;;;;;;19.85;100.00;96748.03;5021197;28;20651;-64
2023/06/09 07:39:54;;;;;;;5.80;5.30;;;;;;;20.32;100.00;96760.03;5008580;28;20352;-64
2023/06/09 07:42:41;;;;;;;5.67;5.27;;;;;;;20.36;100.00;96758.44;5044474;28;20211;-63
2023/06/09 07:45:11;;;;;;;4.63;4.40;;;;;;;20.43;100.00;96758.22;5029982;28;20231;-66
2023/06/09 07:47:40;;;;;;;5.40;4.90;;;;;;;20.67;100.00;96752.47;5024199;28;20203;-65
2023/06/09 07:50:08;;;;;;;4.77;4.50;;;;;;;20.93;100.00;96750.78;5054127;28;20784;-66
2023/06/09 07:52:37;;;;;;;5.00;4.60;;;;;;;20.87;100.00;96753.69;5025389;28;20210;-65
2023/06/09 07:55:06;;;;;;;4.50;4.20;;;;;;;20.76;99.11;96753.59;4995539;28;20282;-66
2023/06/09 07:57:41;;;;;;;4.53;4.23;;;;;;;20.95;98.75;96748.63;5053960;28;20227;-64
2023/06/09 08:00:09;;;;;;;4.40;4.10;;;;;;;21.15;98.53;96747.09;5027611;28;20203;-66
2023/06/09 08:02:41;;;;;;;4.10;3.90;;;;;;;21.03;92.90;96741.94;5049964;28;20277;-64
2023/06/09 08:05:10;;;;;;;4.43;4.13;;;;;;;21.21;91.06;96742.53;5053691;28;20878;-66
2023/06/09 08:07:38;;;;;;;4.67;4.30;;;;;;;21.01;90.52;96744.06;5031822;28;20207;-65
2023/06/09 08:10:07;;;;;;;4.73;4.43;;;;;;;20.60;90.61;96733.88;4990519;28;20304;-66
2023/06/09 08:12:35;;;;;;;4.20;3.90;;;;;;;21.07;92.45;96747.59;5049949;28;20220;-64
2023/06/09 08:15:03;;;;;;;4.50;4.20;;;;;;;20.90;89.67;96745.09;5029479;28;20321;-66
2023/06/09 08:17:30;;;;;;;4.27;3.97;;;;;;;21.18;90.79;96738.47;5047866;28;20325;-65
2023/06/09 08:19:58;;;;;;;3.93;3.73;;;;;;;21.35;98.13;96737.47;5054296;28;20214;-64
2023/06/09 08:22:27;;;;;;;4.73;4.30;;;;;;;21.36;94.39;96731.81;5042345;28;20473;-64
2023/06/09 08:24:56;;;;;;;4.80;4.50;;;;;;;21.76;89.97;96721.41;4972380;28;20230;-67
2023/06/09 08:27:23;;;;;;;4.77;4.20;;;;;;;21.44;88.42;96721.59;5047790;28;20507;-62
2023/06/09 08:29:51;;;;;;;4.67;4.20;;;;;;;21.57;89.33;96722.97;5051510;28;20691;-64
2023/06/09 08:32:18;;;;;;;4.73;4.43;;;;;;;21.92;84.77;96729.50;5051936;28;20651;-65
2023/06/09 08:34:46;;;;;;;4.57;4.27;;;;;;;21.76;87.31;96728.69;5052249;28;20250;-63
2023/06/09 08:37:15;;;;;;;4.93;4.43;;;;;;;21.71;84.06;96717.91;5039578;28;20712;-64
2023/06/09 08:39:44;;;;;;;4.63;4.23;;;;;;;21.61;87.14;96721.38;4972230;28;20366;-61
2023/06/09 08:42:18;;;;;;;4.63;4.33;;;;;;;21.19;83.81;96728.53;5053863;28;20210;-66
2023/06/09 08:44:48;;;;;;;4.97;4.60;;;;;;;20.95;90.37;96729.78;5033910;28;20304;-66
2023/06/09 08:47:18;;;;;;;5.30;4.90;;;;;;;21.64;90.45;96718.19;5052235;28;20859;-66
2023/06/09 08:49:46;;;;;;;5.33;4.93;;;;;;;21.68;84.26;96714.66;5057853;28;20936;-63
2023/06/09 08:52:14;;;;;;;4.97;4.57;;;;;;;22.10;81.65;96720.06;5055033;28;20213;-66
2023/06/09 08:54:43;;;;;;;5.00;4.63;;;;;;;22.32;85.34;96722.50;5028866;28;20226;-64
2023/06/09 08:57:11;;;;;;;4.80;4.40;;;;;;;22.29;82.38;96719.53;5001330;28;20215;-66
2023/06/09 08:59:38;;;;;;;4.90;4.60;;;;;;;22.44;81.68;96714.13;5048538;28;20222;-66
2023/06/09 09:02:07;;;;;;;5.03;4.70;;;;;;;22.31;81.17;96718.19;5035172;28;20346;-66
2023/06/09 09:04:38;;;;;;;5.27;4.83;;;;;;;22.35;80.43;96713.06;5057002;28;20309;-64
2023/06/09 09:07:06;;;;;;;5.17;4.77;;;;;;;21.99;80.41;96713.91;5056715;28;20261;-67
2023/06/09 09:09:33;;;;;;;6.00;5.60;;;;;;;22.20;81.14;96719.28;5048882;28;20613;-65
2023/06/09 09:12:04;;;;;;;5.10;4.60;;;;;;;22.35;76.52;96715.75;4979755;28;20215;-67
2023/06/09 09:14:31;;;;;;;4.83;4.43;;;;;;;22.54;77.61;96710.63;5048440;28;20325;-64
2023/06/09 09:16:59;;;;;;;5.60;5.27;;;;;;;22.19;78.45;96714.97;5037896;28;20239;-64
2023/06/09 09:19:27;;;;;;;5.00;4.70;;;;;;;22.57;77.76;96717.38;5051757;28;20388;-61
2023/06/09 09:21:55;;;;;;;4.67;4.37;;;;;;;22.69;78.12;96709.78;5056515;28;20814;-64
2023/06/09 09:24:28;;;;;;;5.33;5.00;;;;;;;22.83;76.54;96710.81;5046980;28;20748;-64
2023/06/09 09:26:56;;;;;;;5.10;4.80;;;;;;;22.88;75.92;96709.19;5022849;28;20199;-66
2023/06/09 09:29:26;;;;;;;5.00;4.70;;;;;;;23.17;73.57;96703.94;4997831;28;20227;-65
2023/06/09 09:31:57;;;;;;;5.63;5.10;;;;;;;23.45;73.78;96708.97;5030482;28;20298;-65
2023/06/09 09:34:26;;;;;;;5.37;4.97;;;;;;;23.61;71.40;96704.28;5052305;28;20304;-64
2023/06/09 09:36:55;;;;;;;5.27;4.87;;;;;;;23.77;67.25;96704.97;5053870;28;20256;-63
2023/06/09 09:39:22;;;;;;;5.60;5.00;;;;;;;23.63;60.68;96699.41;5047572;28;20518;-64
2023/06/09 09:42:04;;;;;;;5.40;4.90;;;;;;;23.77;61.88;96694.97;5025653;28;20608;-65
2023/06/09 09:44:38;;;;;;;5.00;4.63;;;;;;;23.97;62.59;96694.00;4996464;28;20254;-64
2023/06/09 09:47:12;;;;;;;5.93;5.10;;;;;;;24.23;60.16;96695.69;5030884;28;20206;-67
2023/06/09 09:49:50;;;;;;;5.00;4.70;;;;;;;24.47;54.42;96690.34;5054369;28;20286;-65
2023/06/09 09:52:24;;;;;;;6.00;5.17;;;;;;;24.29;56.61;96681.06;5045633;28;20292;-65
2023/06/09 09:54:53;;;;;;;5.67;5.23;;;;;;;24.37;56.78;96687.72;5049689;28;20314;-65
2023/06/09 09:57:21;;;;;;;5.53;5.23;;;;;;;24.36;55.58;96673.41;5028616;28;20298;-66
2023/06/09 09:59:51;;;;;;;5.20;4.90;;;;;;;24.54;57.07;96682.69;4998386;28;20310;-67
2023/06/09 10:02:23;;;;;;;5.00;4.70;;;;;;;24.72;54.69;96677.63;5026356;28;20215;-65
2023/06/09 10:04:52;;;;;;;5.20;4.90;;;;;;;24.48;54.18;96674.91;5053586;28;20632;-64
2023/06/09 10:07:22;;;;;;;5.60;5.30;;;;;;;24.83;52.38;96664.78;5050109;28;20252;-66
2023/06/09 10:09:51;;;;;;;6.53;5.30;;;;;;;25.25;51.01;96659.66;5047629;28;20286;-64
2023/06/09 10:12:19;;;;;;;5.20;4.83;;;;;;;25.22;50.55;96665.66;5025005;28;20407;-64
2023/06/09 10:14:48;;;;;;;5.20;4.90;;;;;;;25.22;51.11;96662.97;4997129;28;20229;-65
2023/06/09 10:17:20;;;;;;;5.03;4.70;;;;;;;25.75;51.60;96653.78;5031094;28;20751;-67
2023/06/09 10:19:51;;;;;;;5.57;5.17;;;;;;;25.91;47.85;96665.19;5053690;28;20645;-66
2023/06/09 10:22:19;;;;;;;6.17;5.03;;;;;;;25.75;51.67;96661.91;5045619;28;20789;-65
2023/06/09 10:24:47;;;;;;;6.93;4.70;;;;;;;25.46;50.88;96665.63;5049247;28;20341;-66
2023/06/09 10:27:15;;;;;;;5.23;4.87;;;;;;;25.39;50.61;96663.25;5021422;28;20218;-68
2023/06/09 10:29:42;;;;;;;5.70;5.27;;;;;;;25.65;51.15;96668.34;5050415;28;20196;-65
2023/06/09 10:32:12;;;;;;;5.70;5.33;;;;;;;25.50;50.04;96666.66;5000930;28;20218;-67
2023/06/09 10:34:43;;;;;;;5.37;4.97;;;;;;;25.24;48.75;96664.25;5031871;28;20293;-66
2023/06/09 10:37:11;;;;;;;5.90;5.40;;;;;;;25.28;49.09;96672.63;5048374;28;20294;-68
2023/06/09 10:39:56;;;;;;;6.20;5.60;;;;;;;24.97;50.34;96675.72;5047610;28;20250;-67
2023/06/09 10:42:33;;;;;;;5.80;5.40;;;;;;;24.31;58.38;96678.88;5025692;28;20590;-65
2023/06/09 10:45:09;;;;;;;5.27;4.97;;;;;;;23.79;64.60;96675.75;5036855;28;20752;-66
2023/06/09 10:47:47;;;;;;;6.00;5.60;;;;;;;23.64;70.37;96665.84;5036361;28;20217;-66
2023/06/09 10:50:29;;;;;;;5.53;5.13;;;;;;;24.05;68.96;96673.69;5028161;28;20210;-67
2023/06/09 10:52:58;;;;;;;6.83;6.17;;;;;;;24.31;68.10;96672.63;5053322;28;20252;-65
2023/06/09 10:55:27;;;;;;;6.83;5.17;;;;;;;24.20;64.10;96677.31;5044939;28;20447;-65
2023/06/09 10:57:55;;;;;;;5.30;4.90;;;;;;;24.07;60.72;96674.19;5050623;28;20260;-64
2023/06/09 11:00:23;;;;;;;5.60;5.10;;;;;;;23.66;61.56;96671.78;4968138;28;21042;-65
2023/06/09 11:02:54;;;;;;;5.50;5.10;;;;;;;23.51;63.19;96670.00;5050361;28;20770;-64
2023/06/09 11:05:22;;;;;;;5.63;5.17;;;;;;;23.56;64.05;96657.25;5034515;28;20920;-65
2023/06/09 11:08:04;;;;;;;5.33;4.90;;;;;;;24.13;63.65;96664.16;5046388;28;20786;-66
2023/06/09 11:10:32;;;;;;;5.57;5.20;;;;;;;24.33;63.98;96655.03;5047365;28;20408;-66
2023/06/09 11:13:00;;;;;;;5.43;4.93;;;;;;;24.46;61.72;96656.25;5048672;28;20803;-67
2023/06/09 11:15:57;;;;;;;5.40;5.07;;;;;;;24.56;62.54;96645.31;4970428;28;20475;-65
2023/06/09 11:18:25;;;;;;;5.47;5.00;;;;;;;25.00;60.70;96640.75;5046755;28;20198;-67
2023/06/09 11:21:10;;;;;;;5.33;4.80;;;;;;;25.35;57.65;96643.25;5036595;28;20361;-66
2023/06/09 11:24:00;;;;;;;6.00;5.50;;;;;;;25.54;57.44;96640.56;5040179;28;21354;-66
2023/06/09 11:26:28;;;;;;;5.83;5.27;;;;;;;25.34;57.71;96636.22;5045307;28;20458;-67
2023/06/09 11:28:56;;;;;;;5.33;4.90;;;;;;;25.53;56.61;96633.53;5045830;28;20284;-65
2023/06/09 11:31:24;;;;;;;6.40;4.63;;;;;;;25.90;56.77;96627.53;4971927;28;20801;-66
2023/06/09 11:33:53;;;;;;;5.33;5.00;;;;;;;26.23;56.02;96625.59;5045334;28;20247;-67
2023/06/09 11:36:27;;;;;;;5.70;5.23;;;;;;;26.05;57.19;96621.81;5014893;28;20812;-64